FLIGHT INFORMATION
United Airlines

UAL6123

At Arrival Gate

KIAH
 KIDA
DATE: 2020-01-04
GATE: E22
GATE DEPARTURE: 19:37
TAKEOFF: 19:57
DATE: 2020-01-04
GATE:  -
LANDING: 22:57
GATE ARRIVAL: 23:07
FLIGHT DATA
Crew: PETE LOCASCIO
Speed: 480 kts Altitude: 36000 ft
Stage Length: 1139 nm
Route: 
Block Time: 3.5 Flight Time: 3
Fuel Used: 20126 LB
TRACK DATA
50000 FT1000 KTAltitudeSpeed
AIRCRAFT INFORMATION
Aircraft Type: B739ERSSW
Registration: N78448
SELCAL:  MSN/LN: 40003 / 3942
Operator: UNITED AIRLINES
Flights: 10 Block Time: 24 Flight Time: 20.6
Fuel Used: 135969 LB
  • DEPARTURE INFORMATION
    Date: 2020-01-04
    Airport: KIAH
    Gate: E22
    Gate Departure: 19:37
    Takeoff: 19:57
    ARRIVAL INFORMATION
    Date: 2020-01-04
    Airport: KIDA
    Gate:  -
    Landing: 22:57
    Gate Arrival: 23:07
  • FLIGHT DATA
    Crew: PETE LOCASCIO
    Speed: 480 kts Altitude: 36000 ft
    Stage Length: 615 nm
    Route: 
    Block Time: 3.5 Flight Time: 3
    Fuel Used: 20126 LB
  • AIRCRAFT INFORMATION
    Aircraft Type: B739ERSSW
    Registration: N78448
    SELCAL:  MSN/LN: 40003 / 3942
    Operator: United Airlines
    Flights: 10 Block Time: 24 Flight Time: 20.6
    Fuel Used: 135969 LB

DATALINK LOG | Newest first | Current as of: 2020-05-26 17:59:08
LABEL ID SEQUENCE CONTENT Dn/Up
QD070923:07 7.1▼ Dn
QC583622:57▼ Dn
2U1519KIDA 042206Z 21027G35KT 10SM BKN017 BKN110 01/M02 A3012 RMK AO2 PK WND 21035/2206 T00111017▲ Up
2S1519KIDA▼ Dn
2U1202KIDA 041953Z 20003KT 10SM BKN110 M09/M11 A3012 RMK AO2 SLP262 T10891111▲ Up
2S1202KIDA▼ Dn
QB572719:57▼ Dn
QA370819:37 27.2▼ Dn
A31935CLEARED TO KIDA VIA LOA3 LOA MQP PNH TBE DBL J206 OCS BPI PIINE kida. SQUAWK 1343.▲ Up
A31843CLEARED TO KIDA VIA LOA3 LOA MQP PNH TBE DBL J206 OCS BPI PIINE kida. SQUAWK 5354.▲ Up
Q01732[LINK ACK]▲ Up
Q01712[LINK TEST]▼ Dn


AIRCRAFT HISTORY
FLIGHT DATE FLIGHT NUMBER ORIGIN DESTINATION ROUTE BLOCK TIME FLIGHT TIME FUEL USED (LB) PILOT
2020-02-17UAL519KPHX KLAX 1.20.97054Steven Perry
2020-01-23UAL5816CYYC KPHX 2.72.515272Pete Locascio
2020-01-19UAL6126KRNO CYYC 2.4213185Pete Locascio
2020-01-09UAL6520CYEG KRNO 2.52.214248Pete Locascio
2020-01-07UAL5829KIDA CYEG 2.21.711129Pete Locascio
2020-01-04UAL6123KIAH KIDA 3.5320126Pete Locascio
2020-01-02UAL1128KORD KIAH 32.616808Pete Locascio
2020-01-01UAL228KIAH KORD 2.41.912961Michael Roth
2019-12-14UAL519KDEN KIAH 1.91.712035Steven Perry
2019-12-11UAL1629KSFO KDEN 2.3213151Pete Locascio